createdAt,value
2023-02-19T00:02:19.718Z,5.10
2023-02-19T00:04:47.499Z,4.30
2023-02-19T00:07:15.153Z,5.20
2023-02-19T00:09:42.851Z,3.50
2023-02-19T00:12:10.665Z,3.70
2023-02-19T00:14:38.310Z,3.90
2023-02-19T00:17:06.092Z,4.10
2023-02-19T00:19:33.755Z,3.60
2023-02-19T00:22:01.510Z,4.60
2023-02-19T00:24:29.158Z,4.20
2023-02-19T00:26:56.849Z,5.30
2023-02-19T00:29:25.307Z,4.20
2023-02-19T00:31:53.033Z,3.50
2023-02-19T00:34:20.952Z,3.50
2023-02-19T00:36:48.617Z,4.20
2023-02-19T00:39:18.608Z,3.80
2023-02-19T00:41:46.792Z,4.70
2023-02-19T00:44:15.629Z,5.00
2023-02-19T00:46:46.619Z,3.80
2023-02-19T00:49:20.969Z,4.80
2023-02-19T00:51:50.020Z,4.10
2023-02-19T00:54:18.015Z,4.40
2023-02-19T00:56:45.884Z,5.20
2023-02-19T00:59:13.842Z,3.00
2023-02-19T02:08:32.183Z,2.50
2023-02-19T07:00:12.676Z,2.90
2023-02-19T07:02:40.605Z,3.30
2023-02-19T07:05:08.453Z,3.70
2023-02-19T07:07:36.424Z,3.10
2023-02-19T07:10:05.154Z,4.10
2023-02-19T07:12:32.985Z,4.50
2023-02-19T07:15:00.853Z,3.60
2023-02-19T07:17:32.197Z,2.90
2023-02-19T07:20:00.072Z,3.70
2023-02-19T07:22:28.048Z,2.60
2023-02-19T07:24:55.776Z,3.70
2023-02-19T07:27:23.863Z,3.20
2023-02-19T07:29:51.738Z,3.30
2023-02-19T07:32:19.593Z,3.80
2023-02-19T07:34:47.355Z,3.10
2023-02-19T07:37:15.225Z,2.90
2023-02-19T07:39:42.915Z,4.30
2023-02-19T07:42:10.755Z,4.70
2023-02-19T07:44:38.546Z,4.00
2023-02-19T07:47:06.358Z,4.60
2023-02-19T07:49:34.352Z,3.10
2023-02-19T07:52:02.318Z,4.10
2023-02-19T07:54:30.081Z,3.60
2023-02-19T07:56:58.149Z,3.90
2023-02-19T08:53:32.673Z,2.60
2023-02-19T08:56:08.516Z,3.70
2023-02-19T08:58:37.627Z,3.90
2023-02-19T09:01:12.050Z,4.10
2023-02-19T09:03:40.756Z,3.60
2023-02-19T09:06:14.767Z,4.20
2023-02-19T09:08:42.602Z,3.50
2023-02-19T09:11:10.695Z,3.60
2023-02-19T09:13:38.732Z,2.90
2023-02-19T09:16:07.111Z,3.70
2023-02-19T09:18:35.590Z,5.60
2023-02-19T09:21:05.325Z,3.70
2023-02-19T09:23:34.701Z,3.80
2023-02-19T09:26:06.981Z,3.30
2023-02-19T09:28:35.143Z,4.00
2023-02-19T09:31:07.744Z,3.50
2023-02-19T09:33:35.807Z,3.80
2023-02-19T09:36:04.404Z,3.20
2023-02-19T09:38:32.250Z,4.30
2023-02-19T09:41:07.946Z,4.40
2023-02-19T09:43:36.000Z,3.10
2023-02-19T09:46:12.054Z,4.20
2023-02-19T09:48:39.984Z,3.10
2023-02-19T09:51:11.034Z,3.10
2023-02-19T09:53:43.403Z,3.50
2023-02-19T09:56:11.365Z,2.70
2023-02-19T09:58:48.654Z,3.70
2023-02-19T10:01:17.907Z,3.90
2023-02-19T10:03:48.686Z,3.80
2023-02-19T10:06:23.973Z,3.80
2023-02-19T10:09:11.492Z,3.50
2023-02-19T10:11:39.737Z,3.60
2023-02-19T10:14:13.441Z,3.60
2023-02-19T10:16:45.592Z,3.30
2023-02-19T10:19:13.875Z,3.30
2023-02-19T10:21:42.805Z,3.90
2023-02-19T10:24:20.708Z,3.20
2023-02-19T10:26:50.382Z,3.10
2023-02-19T10:29:19.876Z,4.30
2023-02-19T10:31:48.465Z,3.50
2023-02-19T10:34:22.376Z,3.10
2023-02-19T10:36:51.685Z,3.80
2023-02-19T10:39:22.194Z,4.00
2023-02-19T10:41:51.698Z,3.60
2023-02-19T10:44:27.634Z,4.50
2023-02-19T10:46:59.406Z,4.10
2023-02-19T10:49:38.325Z,3.40
2023-02-19T10:52:35.479Z,4.00
2023-02-19T10:55:24.963Z,3.70
2023-02-19T10:57:52.830Z,2.80
2023-02-19T11:00:30.827Z,4.40
2023-02-19T11:03:18.088Z,3.70
2023-02-19T11:06:06.916Z,3.30
2023-02-19T11:08:40.711Z,3.50
2023-02-19T11:11:08.799Z,3.80
2023-02-19T11:13:38.179Z,3.50
2023-02-19T11:16:06.160Z,3.40
2023-02-19T11:18:36.365Z,2.70
2023-02-19T11:21:07.207Z,3.00
2023-02-19T11:23:38.454Z,3.10
2023-02-19T11:26:16.144Z,2.60
2023-02-19T11:31:29.687Z,3.20
2023-02-19T11:34:13.839Z,2.70
2023-02-19T11:36:42.694Z,2.30
2023-02-19T11:39:16.672Z,2.90
2023-02-19T11:41:56.523Z,2.50
2023-02-19T11:44:36.641Z,2.90
2023-02-19T11:47:32.363Z,2.70
2023-02-19T11:50:14.176Z,2.30
2023-02-19T11:53:15.546Z,2.20
2023-02-19T11:55:55.050Z,2.40
2023-02-19T11:58:44.948Z,2.40
2023-02-19T12:01:38.854Z,2.40
2023-02-19T12:04:37.745Z,3.00
2023-02-19T12:07:24.146Z,2.90
2023-02-19T12:10:25.847Z,2.20
2023-02-19T12:13:43.589Z,2.70
2023-02-19T12:16:48.029Z,2.70
2023-02-19T12:19:26.211Z,2.10
2023-02-19T12:21:58.275Z,2.70
2023-02-19T12:24:54.617Z,2.50
2023-02-19T12:27:25.298Z,1.90
2023-02-19T12:30:17.437Z,1.80
2023-02-19T12:32:54.051Z,2.20
2023-02-19T12:35:51.094Z,2.60
2023-02-19T12:38:35.573Z,2.20
2023-02-19T12:41:20.103Z,2.30
2023-02-19T12:44:00.470Z,3.00
2023-02-19T12:46:33.552Z,2.00
2023-02-19T12:49:15.568Z,2.50
2023-02-19T12:51:55.396Z,3.10
2023-02-19T12:54:34.014Z,2.50
2023-02-19T12:57:16.222Z,2.30
2023-02-19T12:59:55.473Z,2.70
2023-02-19T13:02:28.812Z,2.60
2023-02-19T13:05:14.718Z,2.80
2023-02-19T13:08:12.296Z,4.00
2023-02-19T13:10:59.653Z,2.50
2023-02-19T13:13:46.426Z,3.20
2023-02-19T13:16:20.925Z,2.70
2023-02-19T13:18:59.341Z,2.20
2023-02-19T13:21:54.171Z,2.80
2023-02-19T13:24:34.530Z,2.50
2023-02-19T13:27:11.706Z,2.30
2023-02-19T13:29:45.697Z,2.50
2023-02-19T13:32:48.865Z,1.70
2023-02-19T13:35:28.354Z,2.60
2023-02-19T13:38:01.538Z,2.90
2023-02-19T13:40:29.714Z,2.50
2023-02-19T13:43:00.746Z,2.30
2023-02-19T13:45:33.750Z,2.50
2023-02-19T13:48:12.993Z,2.70
2023-02-19T13:50:41.852Z,2.90
2023-02-19T13:53:48.159Z,2.40
2023-02-19T13:56:34.479Z,2.20
2023-02-19T13:59:11.400Z,1.60
2023-02-19T14:01:54.416Z,1.80
2023-02-19T14:04:40.378Z,1.70
2023-02-19T14:07:08.069Z,1.50
2023-02-19T14:09:44.043Z,2.10
2023-02-19T14:12:16.117Z,2.00
2023-02-19T14:14:53.885Z,1.90
2023-02-19T14:17:42.531Z,1.70
2023-02-19T14:20:10.223Z,1.20
2023-02-19T14:22:47.726Z,1.80
2023-02-19T14:25:28.684Z,1.60
2023-02-19T14:28:25.058Z,1.80
2023-02-19T14:31:17.224Z,1.30
2023-02-19T14:33:58.243Z,1.60
2023-02-19T14:36:40.815Z,1.60
2023-02-19T14:39:17.179Z,1.50
2023-02-19T14:41:49.874Z,1.30
2023-02-19T14:44:25.917Z,1.40
2023-02-19T14:47:15.638Z,1.40
2023-02-19T14:49:51.658Z,1.80
2023-02-19T14:52:34.664Z,1.60
2023-02-19T14:55:24.140Z,1.40
2023-02-19T14:57:54.482Z,0.90
2023-02-19T15:00:25.312Z,1.80
2023-02-19T15:02:59.796Z,1.40
2023-02-19T15:05:31.218Z,1.30
2023-02-19T15:08:03.330Z,1.50
2023-02-19T15:10:33.469Z,1.90
2023-02-19T15:13:05.125Z,2.10
2023-02-19T15:18:05.542Z,1.90
2023-02-19T15:20:37.065Z,1.00
2023-02-19T15:23:07.725Z,1.80
2023-02-19T15:25:38.766Z,1.90
2023-02-19T15:28:43.191Z,2.00
2023-02-19T15:31:15.623Z,1.90
2023-02-19T15:33:52.148Z,2.20
2023-02-19T15:36:37.923Z,2.40
2023-02-19T15:39:05.789Z,2.00
2023-02-19T15:41:35.330Z,2.30
2023-02-19T15:44:11.243Z,2.80
2023-02-19T15:46:41.161Z,2.40
2023-02-19T15:49:15.069Z,2.30
2023-02-19T15:51:56.860Z,2.20
2023-02-19T15:55:09.379Z,2.40
2023-02-19T15:57:42.877Z,2.30
2023-02-19T16:00:18.147Z,2.20
2023-02-19T16:02:47.027Z,3.10
2023-02-19T16:05:24.188Z,3.10
2023-02-19T16:08:17.292Z,2.70
2023-02-19T16:10:56.797Z,2.40
2023-02-19T16:13:30.898Z,2.60
2023-02-19T16:16:06.460Z,2.00
2023-02-19T16:18:35.157Z,2.50
2023-02-19T16:21:09.573Z,3.60
2023-02-19T16:23:43.232Z,3.30
2023-02-19T16:26:11.526Z,3.50
2023-02-19T16:28:41.436Z,4.00
2023-02-19T16:31:12.527Z,5.10
2023-02-19T16:33:48.762Z,4.00
2023-02-19T16:36:35.189Z,2.90
2023-02-19T16:39:08.756Z,2.40
2023-02-19T16:41:39.579Z,2.90
2023-02-19T16:44:25.969Z,2.90
2023-02-19T16:46:57.853Z,3.70
2023-02-19T16:49:25.702Z,2.50
2023-02-19T16:51:54.891Z,2.70
2023-02-19T16:54:22.666Z,2.50
2023-02-19T16:56:50.433Z,2.10
2023-02-19T16:59:18.396Z,3.20
2023-02-19T17:01:46.476Z,1.90
2023-02-19T17:04:15.992Z,2.30
2023-02-19T17:06:45.684Z,2.30
2023-02-19T17:09:13.552Z,2.00
2023-02-19T17:11:41.409Z,2.10
2023-02-19T17:14:09.478Z,2.40
2023-02-19T17:16:40.657Z,2.20
2023-02-19T17:19:18.330Z,2.60
2023-02-19T17:21:47.209Z,2.60
2023-02-19T17:24:15.227Z,2.60
2023-02-19T17:26:43.251Z,2.00
2023-02-19T17:29:14.293Z,2.40
2023-02-19T17:31:42.439Z,3.50
2023-02-19T17:34:10.756Z,2.70
2023-02-19T17:36:38.600Z,3.10
2023-02-19T17:39:12.201Z,3.40
2023-02-19T17:41:40.005Z,2.40
2023-02-19T17:44:07.770Z,3.10
2023-02-19T17:46:35.605Z,3.10
2023-02-19T17:49:03.754Z,2.90
2023-02-19T17:51:31.627Z,2.80
2023-02-19T17:53:59.700Z,3.40
2023-02-19T17:56:28.286Z,3.10
2023-02-19T17:58:57.755Z,3.20
2023-02-19T18:01:25.732Z,2.70
2023-02-19T18:03:53.958Z,2.90
2023-02-19T18:06:21.809Z,2.70
2023-02-19T18:08:52.436Z,3.60
2023-02-19T18:11:22.387Z,3.20
2023-02-19T18:13:52.003Z,3.00
2023-02-19T18:16:20.024Z,3.30
2023-02-19T18:18:47.888Z,3.40
2023-02-19T18:21:15.970Z,3.10
2023-02-19T18:23:43.927Z,3.00
2023-02-19T18:26:13.834Z,2.50
2023-02-19T18:28:41.920Z,2.00
2023-02-19T18:31:10.040Z,3.30
2023-02-19T18:33:38.472Z,3.70
2023-02-19T18:36:11.370Z,2.30
2023-02-19T18:38:39.609Z,2.70
2023-02-19T18:41:12.314Z,2.30
2023-02-19T18:43:42.026Z,2.70
2023-02-19T18:46:10.793Z,2.40
2023-02-19T18:48:39.284Z,2.60
2023-02-19T18:51:10.921Z,2.90
2023-02-19T18:53:39.228Z,2.90
2023-02-19T18:56:09.364Z,2.50
2023-02-19T18:58:37.591Z,1.30
2023-02-19T19:01:05.716Z,2.70
2023-02-19T19:03:34.173Z,2.60
2023-02-19T19:06:02.315Z,2.20
2023-02-19T19:08:30.821Z,2.50
2023-02-19T19:10:58.768Z,2.30
2023-02-19T19:13:26.629Z,2.90
2023-02-19T19:15:54.627Z,2.20
2023-02-19T19:18:22.667Z,2.70
2023-02-19T19:20:50.740Z,2.40
2023-02-19T19:23:18.846Z,2.40
2023-02-19T19:25:46.683Z,2.90
2023-02-19T19:28:14.791Z,2.40
2023-02-19T19:30:43.053Z,2.10
2023-02-19T19:33:12.130Z,2.80
2023-02-19T19:35:42.234Z,3.00
2023-02-19T19:38:10.202Z,2.90
2023-02-19T19:40:38.744Z,2.10
2023-02-19T19:43:06.958Z,2.70
2023-02-19T19:45:35.469Z,2.20
2023-02-19T19:48:03.404Z,2.20
2023-02-19T19:50:31.372Z,2.50
2023-02-19T19:52:59.238Z,3.10
2023-02-19T19:55:27.005Z,2.90
2023-02-19T19:57:54.978Z,2.60
2023-02-19T20:00:24.584Z,2.50
2023-02-19T20:02:52.665Z,2.60
2023-02-19T20:05:20.923Z,2.50
2023-02-19T20:07:49.711Z,2.40
2023-02-19T20:10:19.440Z,2.70
2023-02-19T20:12:47.594Z,2.10
2023-02-19T20:15:20.823Z,2.10
2023-02-19T20:17:49.686Z,2.20
2023-02-19T20:20:18.665Z,2.30
2023-02-19T20:22:46.532Z,2.30
2023-02-19T20:25:16.236Z,2.40
2023-02-19T20:27:44.104Z,2.50
2023-02-19T20:30:13.884Z,2.20
2023-02-19T20:32:41.609Z,2.40
2023-02-19T20:35:09.773Z,2.60
2023-02-19T20:37:41.286Z,2.10
2023-02-19T20:40:11.813Z,2.50
2023-02-19T20:42:39.922Z,2.50
2023-02-19T20:45:08.503Z,1.60
2023-02-19T20:47:38.804Z,2.00
2023-02-19T20:50:08.226Z,2.50
2023-02-19T20:52:36.725Z,1.70
2023-02-19T20:55:05.493Z,2.20
2023-02-19T20:57:33.563Z,2.70
2023-02-19T21:00:01.749Z,2.60
2023-02-19T21:02:30.243Z,1.80
2023-02-19T21:04:58.280Z,2.50
2023-02-19T21:07:26.498Z,2.00
2023-02-19T21:09:55.040Z,2.60
2023-02-19T21:12:23.093Z,2.10
2023-02-19T21:14:50.867Z,2.30
2023-02-19T21:17:18.728Z,3.00
2023-02-19T21:19:50.161Z,2.20
2023-02-19T21:22:18.140Z,2.50
2023-02-19T21:24:49.690Z,2.20
2023-02-19T21:27:18.428Z,2.00
2023-02-19T21:29:47.386Z,2.20
2023-02-19T21:32:15.298Z,2.60
2023-02-19T21:34:43.283Z,2.50
2023-02-19T21:37:11.167Z,2.90
2023-02-19T21:39:39.340Z,1.80
2023-02-19T21:42:07.105Z,2.50
2023-02-19T21:44:35.076Z,2.30
2023-02-19T21:47:03.144Z,1.90
2023-02-19T21:49:31.009Z,1.90
2023-02-19T21:51:59.089Z,2.30
2023-02-19T21:54:27.409Z,2.70
2023-02-19T21:56:55.660Z,2.60
2023-02-19T21:59:23.708Z,2.50
2023-02-19T22:01:51.675Z,2.20
2023-02-19T22:04:24.614Z,2.70
2023-02-19T22:06:56.950Z,2.10
2023-02-19T22:09:24.861Z,3.10
2023-02-19T22:11:52.754Z,2.30
2023-02-19T22:14:20.730Z,2.50
2023-02-19T22:16:48.572Z,2.80
2023-02-19T22:19:16.664Z,2.40
2023-02-19T22:21:45.570Z,2.40
2023-02-19T22:24:21.509Z,3.20
2023-02-19T22:26:50.908Z,2.90
2023-02-19T22:29:19.491Z,2.70
2023-02-19T22:31:47.595Z,3.10
2023-02-19T22:34:16.450Z,3.40
2023-02-19T22:36:44.320Z,3.20
2023-02-19T22:39:24.419Z,3.50
2023-02-19T22:41:53.444Z,2.40
2023-02-19T22:44:21.535Z,2.90
2023-02-19T22:46:55.293Z,2.80
2023-02-19T22:49:24.089Z,2.60
2023-02-19T22:51:57.925Z,3.00
2023-02-19T22:54:27.230Z,2.60
2023-02-19T22:56:55.924Z,3.00
2023-02-19T22:59:24.001Z,3.00
2023-02-19T23:01:52.465Z,2.50
2023-02-19T23:04:22.028Z,2.80
2023-02-19T23:06:50.630Z,3.20
2023-02-19T23:09:28.674Z,2.70
2023-02-19T23:14:31.808Z,2.60
2023-02-19T23:16:59.959Z,3.00
2023-02-19T23:19:28.255Z,2.40
2023-02-19T23:21:56.280Z,3.00
2023-02-19T23:24:24.352Z,2.30
2023-02-19T23:26:53.675Z,2.80
2023-02-19T23:29:25.375Z,2.50
2023-02-19T23:31:54.599Z,2.60
2023-02-19T23:34:24.456Z,2.90
2023-02-19T23:36:52.691Z,2.50
2023-02-19T23:39:21.891Z,2.10
2023-02-19T23:41:52.308Z,2.80
2023-02-19T23:44:21.915Z,2.10
2023-02-19T23:46:51.213Z,2.40
2023-02-19T23:49:19.608Z,2.20
2023-02-19T23:51:47.458Z,2.10
2023-02-19T23:54:15.732Z,1.90
2023-02-19T23:56:43.847Z,2.40
2023-02-19T23:59:12.498Z,2.50
